createdAt,value
2018-12-21T00:00:24.784Z,-1.10
2018-12-21T00:02:55.784Z,-1.00
2018-12-21T00:05:26.611Z,-1.00
2018-12-21T00:07:58.728Z,-1.00
2018-12-21T00:10:29.777Z,-0.90
2018-12-21T00:13:00.739Z,-0.90
2018-12-21T00:15:31.624Z,-1.00
2018-12-21T00:18:02.572Z,-1.00
2018-12-21T00:20:33.463Z,-1.00
2018-12-21T00:23:04.344Z,-1.00
2018-12-21T00:25:35.463Z,-1.10
2018-12-21T00:28:06.439Z,-1.10
2018-12-21T00:30:36.584Z,-1.10
2018-12-21T00:33:12.536Z,-1.00
2018-12-21T00:35:48.576Z,-1.10
2018-12-21T00:38:24.527Z,-1.30
2018-12-21T00:41:00.518Z,-1.30
2018-12-21T00:43:37.716Z,-1.30
2018-12-21T00:46:14.344Z,-1.30
2018-12-21T00:48:45.379Z,-1.20
2018-12-21T00:51:16.284Z,-1.30
2018-12-21T00:53:47.399Z,-1.30
2018-12-21T00:56:18.265Z,-1.40
2018-12-21T00:58:49.187Z,-1.50
2018-12-21T01:01:20.251Z,-1.40
2018-12-21T01:03:51.364Z,-1.50
2018-12-21T01:06:22.256Z,-1.60
2018-12-21T01:08:53.249Z,-1.50
2018-12-21T01:11:24.242Z,-1.40
2018-12-21T01:13:55.207Z,-1.40
2018-12-21T01:16:26.943Z,-1.40
2018-12-21T01:18:58.025Z,-1.40
2018-12-21T01:21:38.538Z,-1.40
2018-12-21T01:24:03.396Z,-1.40
2018-12-21T01:26:34.490Z,-1.40
2018-12-21T01:29:05.959Z,-1.40
2018-12-21T01:31:36.835Z,-1.50
2018-12-21T01:34:07.828Z,-1.40
2018-12-21T01:36:38.732Z,-1.40
2018-12-21T01:39:09.703Z,-1.40
2018-12-21T01:41:40.556Z,-1.50
2018-12-21T01:44:12.409Z,-1.50
2018-12-21T01:46:43.549Z,-1.60
2018-12-21T01:49:14.465Z,-1.70
2018-12-21T01:51:47.233Z,-1.70
2018-12-21T01:54:18.321Z,-1.80
2018-12-21T01:56:49.415Z,-1.70
2018-12-21T01:59:20.323Z,-1.70
2018-12-21T02:01:51.203Z,-1.70
2018-12-21T02:04:22.185Z,-1.80
2018-12-21T02:06:53.183Z,-1.70
2018-12-21T02:09:24.195Z,-1.60
2018-12-21T02:11:55.138Z,-1.60
2018-12-21T02:14:26.069Z,-1.60
2018-12-21T02:16:57.083Z,-1.60
2018-12-21T02:19:28.062Z,-1.60
2018-12-21T02:21:58.953Z,-1.60
2018-12-21T02:24:30.206Z,-1.60
2018-12-21T02:27:04.183Z,-1.50
2018-12-21T02:29:36.013Z,-1.50
2018-12-21T02:32:06.914Z,-1.60
2018-12-21T02:34:37.845Z,-1.50
2018-12-21T02:37:08.737Z,-1.50
2018-12-21T02:39:39.687Z,-1.50
2018-12-21T02:42:10.585Z,-1.50
2018-12-21T02:44:41.580Z,-1.60
2018-12-21T02:47:12.502Z,-1.60
2018-12-21T02:49:43.435Z,-1.60
2018-12-21T02:52:14.363Z,-1.60
2018-12-21T02:54:45.251Z,-1.50
2018-12-21T02:57:16.046Z,-1.70
2018-12-21T02:59:47.024Z,-1.70
2018-12-21T03:02:17.930Z,-1.60
2018-12-21T03:04:48.861Z,-1.60
2018-12-21T03:07:19.768Z,-1.50
2018-12-21T03:09:50.673Z,-1.50
2018-12-21T03:12:21.578Z,-1.60
2018-12-21T03:14:52.520Z,-1.80
2018-12-21T03:17:23.516Z,-1.80
2018-12-21T03:19:56.418Z,-1.70
2018-12-21T03:22:28.050Z,-1.70
2018-12-21T03:24:59.007Z,-1.60
2018-12-21T03:27:29.929Z,-1.60
2018-12-21T03:30:01.066Z,-1.50
2018-12-21T03:32:32.047Z,-1.60
2018-12-21T03:35:03.501Z,-1.60
2018-12-21T03:37:34.410Z,-1.70
2018-12-21T03:40:06.693Z,-1.60
2018-12-21T03:42:37.583Z,-1.50
2018-12-21T03:45:08.729Z,-1.60
2018-12-21T03:47:39.723Z,-1.60
2018-12-21T03:50:10.752Z,-1.60
2018-12-21T03:52:41.678Z,-1.70
2018-12-21T03:55:12.624Z,-1.80
2018-12-21T03:57:43.564Z,-1.70
2018-12-21T04:00:14.548Z,-1.70
2018-12-21T04:02:45.464Z,-1.70
2018-12-21T04:05:16.384Z,-1.70
2018-12-21T04:07:47.279Z,-1.60
2018-12-21T04:10:18.400Z,-1.60
2018-12-21T04:12:49.305Z,-1.70
2018-12-21T04:15:20.324Z,-1.60
2018-12-21T04:17:51.281Z,-1.60
2018-12-21T04:20:22.267Z,-1.60
2018-12-21T04:22:53.247Z,-1.70
2018-12-21T04:25:24.217Z,-1.60
2018-12-21T04:28:07.363Z,-1.60
2018-12-21T04:30:38.355Z,-1.60
2018-12-21T04:33:09.325Z,-1.50
2018-12-21T04:35:40.400Z,-1.60
2018-12-21T04:38:11.344Z,-1.60
2018-12-21T04:40:43.071Z,-1.60
2018-12-21T04:43:13.965Z,-1.60
2018-12-21T04:45:45.071Z,-1.70
2018-12-21T04:48:15.943Z,-1.70
2018-12-21T04:50:46.928Z,-1.60
2018-12-21T04:53:17.773Z,-1.50
2018-12-21T04:55:48.721Z,-1.40
2018-12-21T04:58:19.588Z,-1.50
2018-12-21T05:00:50.596Z,-1.50
2018-12-21T05:03:21.518Z,-1.50
2018-12-21T05:05:52.423Z,-1.50
2018-12-21T05:08:23.374Z,-1.50
2018-12-21T05:10:55.720Z,-1.50
2018-12-21T05:13:26.836Z,-1.50
2018-12-21T05:15:57.723Z,-1.50
2018-12-21T05:18:29.556Z,-1.60
2018-12-21T05:21:00.595Z,-1.60
2018-12-21T05:23:31.580Z,-1.70
2018-12-21T05:26:02.605Z,-1.60
2018-12-21T05:28:33.597Z,-1.60
2018-12-21T05:31:04.610Z,-1.60
2018-12-21T05:33:35.496Z,-1.60
2018-12-21T05:36:06.768Z,-1.50
2018-12-21T05:38:37.703Z,-1.50
2018-12-21T05:41:08.639Z,-1.50
2018-12-21T05:43:39.520Z,-1.60
2018-12-21T05:46:10.467Z,-1.60
2018-12-21T05:48:41.439Z,-1.70
2018-12-21T05:51:12.399Z,-1.70
2018-12-21T05:53:43.324Z,-1.60
2018-12-21T05:56:14.266Z,-1.60
2018-12-21T05:58:45.186Z,-1.60
2018-12-21T06:01:16.118Z,-1.60
2018-12-21T06:03:47.028Z,-1.60
2018-12-21T06:06:17.905Z,-1.60
2018-12-21T06:08:48.976Z,-1.70
2018-12-21T06:11:20.007Z,-1.60
2018-12-21T06:13:51.356Z,-1.70
2018-12-21T06:16:22.286Z,-1.60
2018-12-21T06:18:53.571Z,-1.60
2018-12-21T06:21:24.642Z,-1.60
2018-12-21T06:23:55.524Z,-1.70
2018-12-21T06:26:26.508Z,-1.70
2018-12-21T06:28:57.451Z,-1.60
2018-12-21T06:31:28.624Z,-1.60
2018-12-21T06:33:59.588Z,-1.60
2018-12-21T06:36:30.586Z,-1.50
2018-12-21T06:39:01.505Z,-1.50
2018-12-21T06:41:32.529Z,-1.60
2018-12-21T06:44:03.496Z,-1.80
2018-12-21T06:46:35.587Z,-1.80
2018-12-21T06:49:06.526Z,-1.80
2018-12-21T06:51:37.483Z,-1.70
2018-12-21T06:54:08.440Z,-1.60
2018-12-21T06:56:39.623Z,-1.60
2018-12-21T06:59:10.529Z,-1.60
2018-12-21T07:01:41.476Z,-1.80
2018-12-21T07:04:12.402Z,-1.80
2018-12-21T07:06:43.342Z,-1.70
2018-12-21T07:09:14.203Z,-1.80
2018-12-21T07:11:45.197Z,-1.80
2018-12-21T07:14:16.076Z,-1.70
2018-12-21T07:16:47.103Z,-1.60
2018-12-21T07:19:17.925Z,-1.60
2018-12-21T07:21:49.555Z,-1.50
2018-12-21T07:24:20.424Z,-1.60
2018-12-21T07:26:51.475Z,-1.60
2018-12-21T07:29:22.496Z,-1.60
2018-12-21T07:31:53.624Z,-1.60
2018-12-21T07:34:25.974Z,-1.50
2018-12-21T07:36:57.636Z,-1.60
2018-12-21T07:39:28.539Z,-1.60
2018-12-21T07:41:59.552Z,-1.40
2018-12-21T07:44:30.424Z,-1.50
2018-12-21T07:47:01.376Z,-1.50
2018-12-21T07:49:32.395Z,-1.40
2018-12-21T07:52:03.404Z,-1.40
2018-12-21T07:54:34.297Z,-1.30
2018-12-21T07:57:05.228Z,-1.40
2018-12-21T07:59:36.224Z,-1.40
2018-12-21T08:02:07.723Z,-1.40
2018-12-21T08:04:38.706Z,-1.50
2018-12-21T08:07:09.663Z,-1.50
2018-12-21T08:09:40.657Z,-1.60
2018-12-21T08:12:11.583Z,-1.60
2018-12-21T08:14:42.507Z,-1.60
2018-12-21T08:17:13.525Z,-1.40
2018-12-21T08:19:44.424Z,-1.40
2018-12-21T08:22:15.379Z,-1.30
2018-12-21T08:24:47.285Z,-1.30
2018-12-21T08:27:18.683Z,-1.30
2018-12-21T08:29:49.636Z,-1.20
2018-12-21T08:32:20.627Z,-1.20
2018-12-21T08:34:51.488Z,-1.10
2018-12-21T08:37:22.456Z,-1.10
2018-12-21T08:39:53.336Z,-1.10
2018-12-21T08:42:24.376Z,-1.00
2018-12-21T08:44:55.275Z,-0.90
2018-12-21T08:47:26.308Z,-0.90
2018-12-21T08:49:57.155Z,-0.90
2018-12-21T08:52:28.147Z,-1.00
2018-12-21T08:54:59.078Z,-0.90
2018-12-21T08:57:29.976Z,-0.90
2018-12-21T09:00:00.871Z,-0.70
2018-12-21T09:02:31.836Z,-0.60
2018-12-21T09:05:02.743Z,-0.50
2018-12-21T09:07:33.803Z,-0.30
2018-12-21T09:10:05.559Z,-0.10
2018-12-21T09:12:36.596Z,0.10
2018-12-21T09:15:12.836Z,0.10
2018-12-21T09:17:43.800Z,0.20
2018-12-21T09:20:14.736Z,0.10
2018-12-21T09:22:45.692Z,0.00
2018-12-21T09:25:16.596Z,0.20
2018-12-21T09:27:47.555Z,0.20
2018-12-21T09:30:18.717Z,0.20
2018-12-21T09:32:49.680Z,0.20
2018-12-21T09:35:20.665Z,0.30
2018-12-21T09:37:51.623Z,0.40
2018-12-21T09:40:22.632Z,0.50
2018-12-21T09:42:53.596Z,0.60
2018-12-21T09:45:24.756Z,0.80
2018-12-21T09:47:55.819Z,0.90
2018-12-21T09:50:27.204Z,1.30
2018-12-21T09:52:58.199Z,1.20
2018-12-21T09:55:29.024Z,1.10
2018-12-21T09:58:00.376Z,1.10
2018-12-21T10:00:31.323Z,1.10
2018-12-21T10:03:02.255Z,1.20
2018-12-21T10:05:33.169Z,1.20
2018-12-21T10:08:04.184Z,1.40
2018-12-21T10:10:35.078Z,1.50
2018-12-21T10:13:06.043Z,2.40
2018-12-21T10:15:36.995Z,2.20
2018-12-21T10:18:07.959Z,2.00
2018-12-21T10:20:38.869Z,2.20
2018-12-21T10:23:09.882Z,2.10
2018-12-21T10:25:40.786Z,2.10
2018-12-21T10:28:11.738Z,2.10
2018-12-21T10:30:42.647Z,2.20
2018-12-21T10:33:13.625Z,2.10
2018-12-21T10:35:44.555Z,1.80
2018-12-21T10:38:15.544Z,1.70
2018-12-21T10:40:46.465Z,1.70
2018-12-21T10:43:17.347Z,1.90
2018-12-21T10:45:48.217Z,2.10
2018-12-21T10:48:19.144Z,2.20
2018-12-21T10:50:50.164Z,2.20
2018-12-21T10:53:21.136Z,2.00
2018-12-21T10:55:51.996Z,2.00
2018-12-21T10:58:22.939Z,2.00
2018-12-21T11:00:53.878Z,2.10
2018-12-21T11:03:25.137Z,2.00
2018-12-21T11:05:56.057Z,1.90
2018-12-21T11:08:27.365Z,2.00
2018-12-21T11:10:58.177Z,2.00
2018-12-21T11:13:29.531Z,2.10
2018-12-21T11:16:00.767Z,2.20
2018-12-21T11:18:31.755Z,2.40
2018-12-21T11:21:03.172Z,2.60
2018-12-21T11:23:34.139Z,2.30
2018-12-21T11:26:06.077Z,2.30
2018-12-21T11:28:37.037Z,2.30
2018-12-21T11:31:08.066Z,2.20
2018-12-21T11:33:39.144Z,2.20
2018-12-21T11:36:10.116Z,2.20
2018-12-21T11:38:41.124Z,2.20
2018-12-21T11:41:12.486Z,2.10
2018-12-21T11:43:43.501Z,2.10
2018-12-21T11:46:14.478Z,2.10
2018-12-21T11:48:45.490Z,2.10
2018-12-21T11:51:16.645Z,2.20
2018-12-21T11:53:47.664Z,2.30
2018-12-21T11:56:18.543Z,2.30
2018-12-21T11:58:49.451Z,2.20
2018-12-21T12:01:21.438Z,2.50
2018-12-21T12:03:52.406Z,3.10
2018-12-21T12:06:23.366Z,3.30
2018-12-21T12:08:54.344Z,4.30
2018-12-21T12:11:25.347Z,4.50
2018-12-21T12:13:56.415Z,4.80
2018-12-21T12:16:30.196Z,4.70
2018-12-21T12:19:01.364Z,4.80
2018-12-21T12:21:32.381Z,4.70
2018-12-21T12:24:03.327Z,4.90
2018-12-21T12:26:34.265Z,4.90
2018-12-21T12:29:05.207Z,4.80
2018-12-21T12:31:36.261Z,4.60
2018-12-21T12:34:07.176Z,4.70
2018-12-21T12:36:38.165Z,4.70
2018-12-21T12:39:09.443Z,4.40
2018-12-21T12:41:40.302Z,4.30
2018-12-21T12:44:11.367Z,4.40
2018-12-21T12:46:43.157Z,4.20
2018-12-21T12:49:14.189Z,4.30
2018-12-21T12:51:45.185Z,4.50
2018-12-21T12:54:16.159Z,4.70
2018-12-21T12:56:47.065Z,4.50
2018-12-21T12:59:18.308Z,4.80
2018-12-21T13:01:49.184Z,4.80
2018-12-21T13:04:20.108Z,4.80
2018-12-21T13:06:51.442Z,4.40
2018-12-21T13:09:22.608Z,4.30
2018-12-21T13:11:53.539Z,4.20
2018-12-21T13:14:24.925Z,4.50
2018-12-21T13:16:55.907Z,4.50
2018-12-21T13:19:26.897Z,4.60
2018-12-21T13:21:57.763Z,4.70
2018-12-21T13:24:28.717Z,4.80
2018-12-21T13:26:59.839Z,4.60
2018-12-21T13:29:30.878Z,4.70
2018-12-21T13:32:01.848Z,4.80
2018-12-21T13:34:33.728Z,4.60
2018-12-21T13:37:05.159Z,4.60
2018-12-21T13:39:36.249Z,4.50
2018-12-21T13:42:08.179Z,4.40
2018-12-21T13:44:39.709Z,4.40
2018-12-21T13:49:46.846Z,4.50
2018-12-21T13:52:20.042Z,4.40
2018-12-21T13:54:51.136Z,4.50
2018-12-21T13:57:21.979Z,4.60
2018-12-21T13:59:52.954Z,4.40
2018-12-21T14:02:23.924Z,4.40
2018-12-21T14:04:57.390Z,4.40
2018-12-21T14:07:29.122Z,4.40
2018-12-21T14:10:00.504Z,4.30
2018-12-21T14:12:31.486Z,4.30
2018-12-21T14:15:02.557Z,4.30
2018-12-21T14:17:34.206Z,4.40
2018-12-21T14:20:06.932Z,4.50
2018-12-21T14:22:37.923Z,4.60
2018-12-21T14:25:10.009Z,4.70
2018-12-21T14:27:40.905Z,4.80
2018-12-21T14:30:12.717Z,4.80
2018-12-21T14:32:44.688Z,4.80
2018-12-21T14:35:20.637Z,4.80
2018-12-21T14:37:52.554Z,4.80
2018-12-21T14:40:29.106Z,4.90
2018-12-21T14:43:00.822Z,5.10
2018-12-21T14:45:32.888Z,5.00
2018-12-21T14:48:04.188Z,4.90
2018-12-21T14:50:35.398Z,4.80
2018-12-21T14:53:06.535Z,4.60
2018-12-21T14:55:37.833Z,4.60
2018-12-21T14:58:18.057Z,4.70
2018-12-21T15:00:49.366Z,4.70
2018-12-21T15:03:20.237Z,4.80
2018-12-21T15:05:51.834Z,4.80
2018-12-21T15:08:23.039Z,4.60
2018-12-21T15:10:54.305Z,4.40
2018-12-21T15:13:26.410Z,4.40
2018-12-21T15:15:57.394Z,4.50
2018-12-21T15:18:29.220Z,4.40
2018-12-21T15:21:00.114Z,4.70
2018-12-21T15:23:31.198Z,4.50
2018-12-21T15:26:02.539Z,4.80
2018-12-21T15:28:33.488Z,4.80
2018-12-21T15:31:09.538Z,5.00
2018-12-21T15:33:40.547Z,5.20
2018-12-21T15:36:11.718Z,5.10
2018-12-21T15:38:42.592Z,5.00
2018-12-21T15:41:14.618Z,4.70
2018-12-21T15:43:45.527Z,4.70
2018-12-21T15:46:16.921Z,4.80
2018-12-21T15:48:49.796Z,5.70
2018-12-21T15:51:22.051Z,6.00
2018-12-21T15:53:53.011Z,5.70
2018-12-21T15:56:26.252Z,5.70
2018-12-21T15:58:57.314Z,5.70
2018-12-21T16:01:36.590Z,5.50
2018-12-21T16:04:01.943Z,5.40
2018-12-21T16:06:35.619Z,5.30
2018-12-21T16:09:10.200Z,5.20
2018-12-21T16:11:41.725Z,5.00
2018-12-21T16:14:12.694Z,5.10
2018-12-21T16:16:43.736Z,5.10
2018-12-21T16:19:14.884Z,4.80
2018-12-21T16:21:45.985Z,4.70
2018-12-21T16:24:17.025Z,4.80
2018-12-21T16:26:48.382Z,4.80
2018-12-21T16:29:19.666Z,4.80
2018-12-21T16:31:50.666Z,4.90
2018-12-21T16:34:22.987Z,4.80
2018-12-21T16:36:54.017Z,4.80
2018-12-21T16:39:26.857Z,4.80
2018-12-21T16:41:57.713Z,4.80
2018-12-21T16:44:28.577Z,4.60
2018-12-21T16:47:00.436Z,4.30
2018-12-21T16:49:45.649Z,4.20
2018-12-21T16:52:16.620Z,4.20
2018-12-21T16:54:47.661Z,4.30
2018-12-21T16:57:18.575Z,4.10
2018-12-21T17:00:15.984Z,4.10
2018-12-21T17:02:48.143Z,4.00
2018-12-21T17:05:20.101Z,4.00
2018-12-21T17:07:51.265Z,3.90
2018-12-21T17:10:26.812Z,3.80
2018-12-21T17:12:58.415Z,3.70
2018-12-21T17:15:30.198Z,3.70
2018-12-21T17:18:04.092Z,3.70
2018-12-21T17:20:35.308Z,3.70
2018-12-21T17:25:45.642Z,3.70
2018-12-21T17:30:56.126Z,3.60
2018-12-21T17:33:27.334Z,3.60
2018-12-21T17:35:58.556Z,3.70
2018-12-21T17:38:29.637Z,3.60
2018-12-21T17:41:00.704Z,3.70
2018-12-21T17:43:31.958Z,3.80
2018-12-21T17:46:03.916Z,3.80
2018-12-21T17:48:35.024Z,3.70
2018-12-21T17:51:06.601Z,3.70
2018-12-21T17:53:38.056Z,3.70
2018-12-21T17:56:13.020Z,3.90
2018-12-21T17:58:45.318Z,3.90
2018-12-21T18:01:18.747Z,3.90
2018-12-21T18:04:05.219Z,3.80
2018-12-21T18:06:37.944Z,3.90
2018-12-21T18:09:10.499Z,3.80
2018-12-21T18:11:42.592Z,3.80
2018-12-21T18:14:13.443Z,3.80
2018-12-21T18:16:45.504Z,3.80
2018-12-21T18:19:17.991Z,3.70
2018-12-21T18:22:27.391Z,3.80
2018-12-21T18:25:06.767Z,3.90
2018-12-21T18:27:39.977Z,3.80
2018-12-21T18:30:19.584Z,3.80
2018-12-21T18:32:53.238Z,3.80
2018-12-21T18:35:29.953Z,3.90
2018-12-21T18:38:05.640Z,4.00
2018-12-21T18:40:39.258Z,3.90
2018-12-21T18:43:15.586Z,3.90
2018-12-21T18:45:47.866Z,3.80
2018-12-21T18:48:20.844Z,3.80
2018-12-21T18:50:52.104Z,3.90
2018-12-21T18:53:24.524Z,3.90
2018-12-21T18:55:57.078Z,3.90
2018-12-21T18:58:31.379Z,4.10
2018-12-21T19:01:07.738Z,4.00
2018-12-21T19:03:39.324Z,4.20
2018-12-21T19:06:14.398Z,4.20
2018-12-21T19:08:46.867Z,4.10
2018-12-21T19:11:19.384Z,4.20
2018-12-21T19:16:36.265Z,4.30
2018-12-21T19:19:13.868Z,4.30
2018-12-21T19:21:48.514Z,4.20
2018-12-21T19:24:20.098Z,4.20
2018-12-21T19:26:55.878Z,4.40
2018-12-21T19:29:26.406Z,4.50
2018-12-21T19:31:58.283Z,4.60
2018-12-21T19:34:32.385Z,4.50
2018-12-21T19:37:04.134Z,4.70
2018-12-21T19:39:36.226Z,4.70
2018-12-21T19:42:08.053Z,4.70
2018-12-21T19:44:39.777Z,4.60
2018-12-21T19:47:15.121Z,4.60
2018-12-21T19:49:47.144Z,4.60
2018-12-21T19:52:18.872Z,4.60
2018-12-21T19:54:57.676Z,4.60
2018-12-21T19:57:29.212Z,4.50
2018-12-21T20:00:05.037Z,4.50
2018-12-21T20:02:39.127Z,4.40
2018-12-21T20:05:13.220Z,4.50
2018-12-21T20:07:44.770Z,4.50
2018-12-21T20:10:17.821Z,4.70
2018-12-21T20:12:49.517Z,4.70
2018-12-21T20:15:21.273Z,4.60
2018-12-21T20:17:52.859Z,4.60
2018-12-21T20:20:26.944Z,4.50
2018-12-21T20:23:02.186Z,4.60
2018-12-21T20:25:34.524Z,4.60
2018-12-21T20:28:06.153Z,4.60
2018-12-21T20:30:38.847Z,4.60
2018-12-21T20:33:10.630Z,4.70
2018-12-21T20:35:43.466Z,4.70
2018-12-21T20:38:21.345Z,4.70
2018-12-21T20:40:50.204Z,4.60
2018-12-21T20:43:22.049Z,4.70
2018-12-21T20:45:54.420Z,4.70
2018-12-21T20:48:27.912Z,4.70
2018-12-21T20:50:59.701Z,4.60
2018-12-21T20:53:31.258Z,4.60
2018-12-21T20:56:03.192Z,4.60
2018-12-21T20:59:10.153Z,4.60
2018-12-21T21:01:42.022Z,4.70
2018-12-21T21:04:14.542Z,4.70
2018-12-21T21:06:46.307Z,4.70
2018-12-21T21:09:17.883Z,4.90
2018-12-21T21:11:49.776Z,4.80
2018-12-21T21:14:23.639Z,4.70
2018-12-21T21:16:55.126Z,4.60
2018-12-21T21:19:30.107Z,4.60
2018-12-21T21:22:01.478Z,4.70
2018-12-21T21:24:32.820Z,4.80
2018-12-21T21:27:04.465Z,4.80
2018-12-21T21:29:35.887Z,4.90
2018-12-21T21:32:07.278Z,5.00
2018-12-21T21:34:38.337Z,4.90
2018-12-21T21:37:09.737Z,4.80
2018-12-21T21:39:41.141Z,4.80
2018-12-21T21:42:12.296Z,4.80
2018-12-21T21:44:43.386Z,4.80
2018-12-21T21:47:14.461Z,4.80
2018-12-21T21:49:45.731Z,4.90
2018-12-21T21:52:21.011Z,5.00
2018-12-21T21:54:52.132Z,5.00
2018-12-21T21:57:24.036Z,5.00
2018-12-21T21:59:55.076Z,5.00
2018-12-21T22:02:26.105Z,4.90
2018-12-21T22:04:57.055Z,4.90
2018-12-21T22:07:28.551Z,5.00
2018-12-21T22:09:59.484Z,5.00
2018-12-21T22:12:30.491Z,4.90
2018-12-21T22:16:11.424Z,5.00
2018-12-21T22:18:42.306Z,5.10
2018-12-21T22:21:13.295Z,5.10
2018-12-21T22:23:44.284Z,5.10
2018-12-21T22:26:15.317Z,5.10
2018-12-21T22:28:47.256Z,5.00
2018-12-21T22:31:18.075Z,5.10
2018-12-21T22:33:49.043Z,5.10
2018-12-21T22:36:19.863Z,5.00
2018-12-21T22:38:50.775Z,5.10
2018-12-21T22:41:21.945Z,5.30
2018-12-21T22:43:52.948Z,5.10
2018-12-21T22:46:23.947Z,5.20
2018-12-21T22:48:54.902Z,5.30
2018-12-21T22:51:25.852Z,5.30
2018-12-21T22:53:56.776Z,5.20
2018-12-21T22:56:27.723Z,5.20
2018-12-21T22:58:58.667Z,5.30
2018-12-21T23:01:29.885Z,5.40
2018-12-21T23:04:00.803Z,5.50
2018-12-21T23:06:31.675Z,5.40
2018-12-21T23:09:02.916Z,5.50
2018-12-21T23:11:33.816Z,5.40
2018-12-21T23:14:04.804Z,5.30
2018-12-21T23:16:35.685Z,5.20
2018-12-21T23:19:06.584Z,5.20
2018-12-21T23:21:37.524Z,5.30
2018-12-21T23:24:08.504Z,5.30
2018-12-21T23:26:39.383Z,5.20
2018-12-21T23:29:10.324Z,5.20
2018-12-21T23:31:44.960Z,5.10
2018-12-21T23:34:15.863Z,5.30
2018-12-21T23:36:46.783Z,5.40
2018-12-21T23:39:17.643Z,5.50
2018-12-21T23:41:48.605Z,5.40
2018-12-21T23:44:19.566Z,5.40
2018-12-21T23:46:50.414Z,5.30
2018-12-21T23:49:21.346Z,5.40
2018-12-21T23:51:52.217Z,5.40
2018-12-21T23:54:23.082Z,5.40
2018-12-21T23:56:53.966Z,5.30
2018-12-21T23:59:24.897Z,5.20
